createdAt,value
2018-12-19T00:01:44.040Z,98578.84
2018-12-19T00:04:12.457Z,98577.48
2018-12-19T00:06:41.209Z,98575.50
2018-12-19T00:09:09.640Z,98570.24
2018-12-19T00:11:38.057Z,98562.75
2018-12-19T00:14:06.544Z,98557.30
2018-12-19T00:16:34.979Z,98564.67
2018-12-19T00:19:03.471Z,98561.95
2018-12-19T00:21:31.957Z,98560.59
2018-12-19T00:24:00.400Z,98560.14
2018-12-19T00:26:28.822Z,98544.27
2018-12-19T00:28:57.300Z,98552.83
2018-12-19T00:31:25.735Z,98551.48
2018-12-19T00:33:54.171Z,98550.26
2018-12-19T00:36:22.663Z,98556.28
2018-12-19T00:38:51.087Z,98548.27
2018-12-19T00:41:19.544Z,98546.92
2018-12-19T00:43:48.028Z,98552.00
2018-12-19T00:46:16.755Z,98557.56
2018-12-19T00:48:45.186Z,98548.13
2018-12-19T00:51:13.763Z,98546.42
2018-12-19T00:53:42.204Z,98546.05
2018-12-19T00:56:10.611Z,98548.62
2018-12-19T00:58:39.052Z,98549.91
2018-12-19T01:01:07.489Z,98539.08
2018-12-19T01:03:35.930Z,98332.16
2018-12-19T01:06:04.447Z,98554.30
2018-12-19T01:08:32.894Z,98552.48
2018-12-19T01:11:01.321Z,98559.03
2018-12-19T01:13:29.799Z,98555.66
2018-12-19T01:15:58.222Z,98561.72
2018-12-19T01:18:26.648Z,98557.81
2018-12-19T01:20:55.126Z,98560.81
2018-12-19T01:23:23.558Z,98565.09
2018-12-19T01:25:51.987Z,98560.05
2018-12-19T01:28:20.454Z,98569.23
2018-12-19T01:30:48.905Z,98556.17
2018-12-19T01:33:17.378Z,98561.50
2018-12-19T01:35:45.859Z,98555.23
2018-12-19T01:38:14.305Z,98551.66
2018-12-19T01:40:42.751Z,98548.09
2018-12-19T01:43:12.109Z,98546.33
2018-12-19T01:45:40.553Z,98544.92
2018-12-19T01:48:09.012Z,98549.80
2018-12-19T01:50:38.195Z,98547.27
2018-12-19T01:53:06.620Z,98543.71
2018-12-19T01:55:35.049Z,98533.00
2018-12-19T01:58:03.493Z,98533.94
2018-12-19T02:00:31.874Z,98528.08
2018-12-19T02:03:00.530Z,98529.96
2018-12-19T02:05:29.053Z,98522.58
2018-12-19T02:07:57.805Z,98514.52
2018-12-19T02:10:26.235Z,98520.14
2018-12-19T02:12:54.685Z,98515.19
2018-12-19T02:15:23.137Z,98511.11
2018-12-19T02:17:51.585Z,98505.44
2018-12-19T02:20:20.070Z,98511.28
2018-12-19T02:22:48.503Z,98502.13
2018-12-19T02:25:16.955Z,98500.69
2018-12-19T02:27:45.439Z,98496.22
2018-12-19T02:30:14.044Z,98505.91
2018-12-19T02:32:42.495Z,98510.41
2018-12-19T02:35:10.947Z,98506.70
2018-12-19T02:37:39.375Z,98507.05
2018-12-19T02:40:07.774Z,98507.72
2018-12-19T02:42:36.267Z,98511.47
2018-12-19T02:45:04.883Z,98503.25
2018-12-19T02:47:33.319Z,98501.97
2018-12-19T02:50:01.784Z,98494.33
2018-12-19T02:52:30.244Z,98494.91
2018-12-19T02:54:58.671Z,98492.03
2018-12-19T02:57:27.195Z,98495.12
2018-12-19T02:59:55.669Z,98481.92
2018-12-19T03:02:31.321Z,98485.48
2018-12-19T03:04:59.764Z,98470.98
2018-12-19T03:07:28.588Z,98479.62
2018-12-19T03:10:13.988Z,98478.14
2018-12-19T03:12:42.427Z,98478.41
2018-12-19T03:15:10.904Z,98488.92
2018-12-19T03:17:39.390Z,98492.55
2018-12-19T03:20:24.789Z,98483.73
2018-12-19T03:22:54.015Z,98477.11
2018-12-19T03:25:23.044Z,98483.80
2018-12-19T03:27:56.964Z,98483.02
2018-12-19T03:30:26.153Z,98491.36
2018-12-19T03:33:13.398Z,98491.16
2018-12-19T03:35:43.107Z,98494.81
2018-12-19T03:38:13.607Z,98493.85
2018-12-19T03:40:42.051Z,98488.64
2018-12-19T03:43:10.516Z,98492.16
2018-12-19T03:45:39.016Z,98491.78
2018-12-19T03:48:09.476Z,98490.50
2018-12-19T03:50:37.919Z,98493.53
2018-12-19T03:53:06.366Z,98451.50
2018-12-19T03:55:35.433Z,98498.87
2018-12-19T03:58:03.986Z,98499.13
2018-12-19T04:00:37.903Z,98499.08
2018-12-19T04:03:06.344Z,98494.60
2018-12-19T04:05:35.165Z,98496.96
2018-12-19T04:08:03.828Z,98498.91
2018-12-19T04:10:32.298Z,98494.76
2018-12-19T04:13:01.741Z,98487.62
2018-12-19T04:15:30.208Z,98493.92
2018-12-19T04:17:58.652Z,98498.19
2018-12-19T04:20:27.101Z,98494.29
2018-12-19T04:22:55.603Z,98490.72
2018-12-19T04:25:24.036Z,98493.20
2018-12-19T04:28:13.764Z,98501.19
2018-12-19T04:30:42.250Z,98500.32
2018-12-19T04:33:10.686Z,98499.03
2018-12-19T04:35:39.784Z,98499.76
2018-12-19T04:38:08.204Z,98499.16
2018-12-19T04:40:36.798Z,98493.81
2018-12-19T04:43:26.507Z,98496.81
2018-12-19T04:46:01.199Z,98491.86
2018-12-19T04:48:29.656Z,98494.25
2018-12-19T04:50:58.108Z,98497.98
2018-12-19T04:53:31.948Z,98495.73
2018-12-19T04:59:01.856Z,98498.81
2018-12-19T05:01:35.841Z,98340.14
2018-12-19T05:04:04.796Z,98501.17
2018-12-19T05:06:41.851Z,98499.41
2018-12-19T05:09:11.180Z,98503.61
2018-12-19T05:11:57.984Z,98499.66
2018-12-19T05:17:22.930Z,98500.72
2018-12-19T05:19:54.950Z,98493.48
2018-12-19T05:22:28.718Z,98503.74
2018-12-19T05:24:57.241Z,98501.59
2018-12-19T05:27:25.738Z,98497.25
2018-12-19T05:29:58.666Z,98505.08
2018-12-19T05:32:27.119Z,98497.10
2018-12-19T05:34:55.568Z,98491.66
2018-12-19T05:37:24.038Z,98488.58
2018-12-19T05:39:52.458Z,98489.50
2018-12-19T05:42:20.859Z,98495.81
2018-12-19T05:44:49.359Z,98487.58
2018-12-19T05:47:18.028Z,98481.98
2018-12-19T05:49:46.888Z,98481.98
2018-12-19T05:52:23.747Z,98471.68
2018-12-19T05:54:52.625Z,98482.81
2018-12-19T05:57:24.988Z,98479.78
2018-12-19T05:59:54.536Z,98481.98
2018-12-19T06:02:26.176Z,98473.70
2018-12-19T06:05:00.040Z,98479.42
2018-12-19T06:07:31.615Z,98484.70
2018-12-19T06:10:08.186Z,98484.47
2018-12-19T06:12:37.452Z,98489.31
2018-12-19T06:15:06.136Z,98053.69
2018-12-19T06:17:53.389Z,98491.23
2018-12-19T06:20:22.092Z,98500.02
2018-12-19T06:22:51.182Z,98495.94
2018-12-19T06:25:20.486Z,98495.67
2018-12-19T06:28:11.039Z,98498.86
2018-12-19T06:30:39.483Z,98504.22
2018-12-19T06:33:07.912Z,98509.06
2018-12-19T06:35:44.347Z,98504.15
2018-12-19T06:38:15.485Z,98511.28
2018-12-19T06:40:50.752Z,98506.58
2018-12-19T06:43:19.697Z,98503.30
2018-12-19T06:45:49.490Z,98511.67
2018-12-19T06:48:17.959Z,98512.76
2018-12-19T06:50:50.912Z,98507.00
2018-12-19T06:53:19.419Z,98512.34
2018-12-19T06:55:47.863Z,98515.98
2018-12-19T06:58:16.313Z,98512.70
2018-12-19T07:00:44.811Z,98517.17
2018-12-19T07:03:13.763Z,98519.93
2018-12-19T07:05:42.275Z,98521.05
2018-12-19T07:08:10.968Z,98520.25
2018-12-19T07:10:39.436Z,98511.55
2018-12-19T07:13:07.988Z,98514.83
2018-12-19T07:15:36.728Z,98509.59
2018-12-19T07:18:05.178Z,98511.78
2018-12-19T07:20:34.151Z,98516.48
2018-12-19T07:23:02.680Z,98523.78
2018-12-19T07:25:31.140Z,98522.36
2018-12-19T07:27:59.582Z,98521.80
2018-12-19T07:30:28.052Z,98525.27
2018-12-19T07:32:56.485Z,98529.94
2018-12-19T07:35:24.937Z,98529.06
2018-12-19T07:37:53.456Z,98526.87
2018-12-19T07:40:21.899Z,98531.03
2018-12-19T07:42:50.441Z,98526.76
2018-12-19T07:45:18.951Z,98530.95
2018-12-19T07:47:47.404Z,98531.41
2018-12-19T07:50:17.044Z,98529.17
2018-12-19T07:52:45.767Z,98530.87
2018-12-19T07:55:14.596Z,98525.27
2018-12-19T07:57:43.294Z,98534.77
2018-12-19T08:00:11.849Z,98536.73
2018-12-19T08:02:40.295Z,98538.96
2018-12-19T08:05:08.757Z,98540.84
2018-12-19T08:07:37.689Z,98538.13
2018-12-19T08:10:07.521Z,98540.59
2018-12-19T08:12:36.255Z,98546.30
2018-12-19T08:15:05.120Z,98543.86
2018-12-19T08:17:33.958Z,98545.33
2018-12-19T08:20:02.411Z,98549.19
2018-12-19T08:22:31.095Z,98543.45
2018-12-19T08:24:59.610Z,98543.13
2018-12-19T08:27:28.156Z,98547.11
2018-12-19T08:29:56.628Z,98538.77
2018-12-19T08:32:25.088Z,98539.22
2018-12-19T08:34:53.551Z,98536.27
2018-12-19T08:37:22.038Z,98540.79
2018-12-19T08:39:50.572Z,98542.56
2018-12-19T08:42:19.298Z,98537.80
2018-12-19T08:44:47.787Z,98538.73
2018-12-19T08:47:16.328Z,98538.84
2018-12-19T08:49:44.800Z,98535.50
2018-12-19T08:52:13.607Z,98532.19
2018-12-19T08:54:42.325Z,98543.50
2018-12-19T08:57:11.076Z,98543.68
2018-12-19T08:59:39.970Z,98542.56
2018-12-19T09:02:08.383Z,98543.54
2018-12-19T09:04:36.833Z,98545.70
2018-12-19T09:07:05.311Z,98537.86
2018-12-19T09:09:33.780Z,98543.95
2018-12-19T09:12:02.209Z,98540.25
2018-12-19T09:14:30.690Z,98535.33
2018-12-19T09:16:59.135Z,98531.39
2018-12-19T09:19:27.606Z,98525.08
2018-12-19T09:21:56.593Z,98525.73
2018-12-19T09:24:25.150Z,98522.95
2018-12-19T09:26:53.587Z,98518.95
2018-12-19T09:29:22.076Z,98525.50
2018-12-19T09:31:50.505Z,98517.59
2018-12-19T09:34:18.943Z,98519.88
2018-12-19T09:36:47.429Z,98509.27
2018-12-19T09:39:15.902Z,98509.53
2018-12-19T09:41:44.330Z,98507.55
2018-12-19T09:44:12.835Z,98509.95
2018-12-19T09:46:41.287Z,98510.22
2018-12-19T09:49:12.455Z,98496.55
2018-12-19T09:51:40.230Z,98502.13
2018-12-19T09:54:08.646Z,98491.82
2018-12-19T09:56:37.097Z,98492.89
2018-12-19T09:59:05.607Z,98484.22
2018-12-19T10:01:34.045Z,98480.84
2018-12-19T10:04:02.495Z,98468.23
2018-12-19T10:06:30.970Z,98467.34
2018-12-19T10:08:59.390Z,98468.81
2018-12-19T10:11:27.823Z,98465.46
2018-12-19T10:13:56.302Z,98458.69
2018-12-19T10:16:24.725Z,98460.62
2018-12-19T10:18:53.205Z,98455.61
2018-12-19T10:21:21.662Z,98457.53
2018-12-19T10:23:50.208Z,98445.80
2018-12-19T10:26:18.871Z,98444.27
2018-12-19T10:28:47.353Z,98434.16
2018-12-19T10:31:15.765Z,98432.34
2018-12-19T10:33:44.190Z,98430.78
2018-12-19T10:36:12.675Z,98432.43
2018-12-19T10:38:41.140Z,98431.26
2018-12-19T10:41:09.708Z,98424.20
2018-12-19T10:43:38.172Z,98430.45
2018-12-19T10:46:06.615Z,98423.89
2018-12-19T10:48:35.060Z,98423.58
2018-12-19T10:51:03.565Z,98423.16
2018-12-19T10:53:32.024Z,98427.91
2018-12-19T10:56:00.476Z,98410.99
2018-12-19T10:58:28.944Z,98410.07
2018-12-19T11:01:00.205Z,98398.06
2018-12-19T11:03:28.703Z,98392.91
2018-12-19T11:05:57.163Z,98310.55
2018-12-19T11:08:25.638Z,98398.60
2018-12-19T11:10:54.139Z,98401.74
2018-12-19T11:13:22.588Z,98410.43
2018-12-19T11:15:51.034Z,98406.63
2018-12-19T11:18:20.355Z,98397.53
2018-12-19T11:20:48.827Z,98399.66
2018-12-19T11:23:17.266Z,98397.48
2018-12-19T11:25:45.725Z,98392.23
2018-12-19T11:28:14.168Z,98391.28
2018-12-19T11:30:42.619Z,98378.86
2018-12-19T11:33:11.571Z,98390.08
2018-12-19T11:35:40.074Z,98386.41
2018-12-19T11:38:08.515Z,98391.89
2018-12-19T11:40:37.002Z,98384.46
2018-12-19T11:43:05.464Z,98385.56
2018-12-19T11:45:33.914Z,98387.86
2018-12-19T11:48:02.383Z,98386.91
2018-12-19T11:50:30.864Z,98385.11
2018-12-19T11:52:59.299Z,98376.89
2018-12-19T11:55:27.836Z,98376.59
2018-12-19T11:57:56.288Z,98374.38
2018-12-19T12:00:24.760Z,98353.09
2018-12-19T12:02:53.196Z,98363.42
2018-12-19T12:05:21.954Z,98365.22
2018-12-19T12:07:50.396Z,98361.95
2018-12-19T12:10:18.888Z,98357.08
2018-12-19T12:12:47.299Z,98357.20
2018-12-19T12:15:15.812Z,98350.27
2018-12-19T12:17:44.307Z,98344.73
2018-12-19T12:20:12.769Z,98341.26
2018-12-19T12:22:41.320Z,98331.77
2018-12-19T12:25:09.885Z,98322.50
2018-12-19T12:27:38.339Z,98334.34
2018-12-19T12:30:06.995Z,98327.24
2018-12-19T12:32:35.479Z,98329.12
2018-12-19T12:35:05.451Z,98329.63
2018-12-19T12:37:33.878Z,98331.68
2018-12-19T12:40:02.795Z,98314.73
2018-12-19T12:42:31.286Z,98319.65
2018-12-19T12:44:59.948Z,98326.00
2018-12-19T12:47:28.680Z,98318.56
2018-12-19T12:49:57.111Z,98317.17
2018-12-19T12:52:25.528Z,98308.41
2018-12-19T12:54:54.022Z,98304.14
2018-12-19T12:57:22.442Z,98302.75
2018-12-19T12:59:50.864Z,98305.41
2018-12-19T13:02:19.380Z,98301.56
2018-12-19T13:04:47.835Z,98298.66
2018-12-19T13:07:16.286Z,98300.72
2018-12-19T13:09:44.784Z,98291.38
2018-12-19T13:12:13.224Z,98288.45
2018-12-19T13:14:41.687Z,98287.91
2018-12-19T13:17:10.164Z,98270.22
2018-12-19T13:19:38.620Z,98284.92
2018-12-19T13:22:07.041Z,98286.64
2018-12-19T13:24:37.316Z,98283.52
2018-12-19T13:27:05.745Z,98280.00
2018-12-19T13:29:34.209Z,98288.91
2018-12-19T13:32:03.072Z,98284.12
2018-12-19T13:34:31.532Z,98285.28
2018-12-19T13:36:59.987Z,98288.34
2018-12-19T13:39:28.475Z,98280.98
2018-12-19T13:41:56.879Z,98285.78
2018-12-19T13:44:25.330Z,98285.80
2018-12-19T13:46:53.958Z,98274.62
2018-12-19T13:49:22.418Z,98273.66
2018-12-19T13:51:51.253Z,98275.70
2018-12-19T13:54:20.716Z,98279.08
2018-12-19T13:56:49.203Z,98282.85
2018-12-19T13:59:17.648Z,98281.59
2018-12-19T14:01:46.114Z,98270.92
2018-12-19T14:04:14.804Z,98269.66
2018-12-19T14:06:43.246Z,98270.50
2018-12-19T14:09:11.717Z,98260.19
2018-12-19T14:11:40.760Z,98255.30
2018-12-19T14:14:09.287Z,98253.82
2018-12-19T14:16:37.773Z,98252.52
2018-12-19T14:19:10.528Z,98240.70
2018-12-19T14:21:39.056Z,98245.67
2018-12-19T14:24:07.513Z,98246.13
2018-12-19T14:26:36.057Z,98245.73
2018-12-19T14:29:04.537Z,98249.17
2018-12-19T14:31:34.646Z,98250.05
2018-12-19T14:34:03.144Z,98249.65
2018-12-19T14:36:31.625Z,98252.25
2018-12-19T14:39:00.080Z,98247.96
2018-12-19T14:41:28.517Z,98250.13
2018-12-19T14:43:56.976Z,98252.31
2018-12-19T14:46:25.444Z,98247.91
2018-12-19T14:48:53.908Z,98250.48
2018-12-19T14:51:22.511Z,98250.83
2018-12-19T14:53:50.972Z,98247.36
2018-12-19T14:56:19.455Z,98250.76
2018-12-19T14:58:47.979Z,98246.33
2018-12-19T15:01:17.336Z,98253.67
2018-12-19T15:03:47.256Z,98249.38
2018-12-19T15:06:17.602Z,98256.70
2018-12-19T15:08:46.454Z,98260.14
2018-12-19T15:11:15.052Z,98251.98
2018-12-19T15:13:43.566Z,98242.54
2018-12-19T15:16:12.515Z,98256.30
2018-12-19T15:18:40.940Z,98255.85
2018-12-19T15:21:09.444Z,98257.56
2018-12-19T15:23:38.934Z,98261.41
2018-12-19T15:26:07.377Z,98257.12
2018-12-19T15:28:35.889Z,98253.67
2018-12-19T15:31:04.354Z,98248.96
2018-12-19T15:33:32.832Z,98245.96
2018-12-19T15:36:02.058Z,98249.41
2018-12-19T15:38:31.313Z,98253.72
2018-12-19T15:40:59.789Z,98255.85
2018-12-19T15:43:28.322Z,98248.49
2018-12-19T15:45:56.799Z,98245.09
2018-12-19T15:48:25.944Z,98251.62
2018-12-19T15:50:54.513Z,98240.89
2018-12-19T15:53:25.036Z,98240.45
2018-12-19T15:55:53.516Z,98233.09
2018-12-19T15:58:22.129Z,98232.20
2018-12-19T16:00:54.925Z,98236.05
2018-12-19T16:03:23.643Z,98231.31
2018-12-19T16:05:52.433Z,98231.29
2018-12-19T16:08:20.878Z,98230.42
2018-12-19T16:10:49.347Z,98231.29
2018-12-19T16:13:17.857Z,98226.16
2018-12-19T16:15:48.383Z,98233.94
2018-12-19T16:18:16.916Z,98230.13
2018-12-19T16:20:45.357Z,98231.89
2018-12-19T16:23:13.876Z,98229.84
2018-12-19T16:25:43.994Z,98229.89
2018-12-19T16:28:12.484Z,98221.73
2018-12-19T16:30:41.383Z,98212.28
2018-12-19T16:33:09.940Z,98208.41
2018-12-19T16:35:38.500Z,98203.21
2018-12-19T16:38:07.065Z,98200.19
2018-12-19T16:40:35.736Z,98198.05
2018-12-19T16:43:05.100Z,98189.81
2018-12-19T16:48:12.663Z,98188.06
2018-12-19T16:50:41.196Z,98184.52
2018-12-19T16:53:10.207Z,98200.06
2018-12-19T16:55:39.272Z,98205.66
2018-12-19T16:58:07.754Z,98196.20
2018-12-19T17:00:36.423Z,98201.42
2018-12-19T17:06:07.518Z,98185.27
2018-12-19T17:08:37.144Z,98172.39
2018-12-19T17:11:05.781Z,98169.81
2018-12-19T17:13:36.133Z,98177.53
2018-12-19T17:16:04.850Z,98181.77
2018-12-19T17:18:33.582Z,98177.88
2018-12-19T17:21:02.437Z,98182.62
2018-12-19T17:23:31.545Z,98185.63
2018-12-19T17:26:00.409Z,98190.42
2018-12-19T17:28:29.391Z,98198.60
2018-12-19T17:30:58.709Z,98189.59
2018-12-19T17:33:28.616Z,98186.28
2018-12-19T17:35:57.150Z,98172.95
2018-12-19T17:38:29.817Z,98171.81
2018-12-19T17:40:58.665Z,98173.36
2018-12-19T17:43:27.203Z,98172.84
2018-12-19T17:45:55.795Z,98169.81
2018-12-19T17:48:24.418Z,98174.95
2018-12-19T17:50:53.507Z,98162.50
2018-12-19T17:53:21.964Z,98156.92
2018-12-19T17:55:51.506Z,98166.39
2018-12-19T17:58:20.069Z,98161.67
2018-12-19T18:00:48.754Z,98156.48
2018-12-19T18:03:18.058Z,98155.33
2018-12-19T18:05:46.548Z,98163.09
2018-12-19T18:08:15.943Z,98156.64
2018-12-19T18:10:44.463Z,98159.30
2018-12-19T18:13:15.352Z,98155.38
2018-12-19T18:15:44.007Z,98156.23
2018-12-19T18:18:15.211Z,98150.66
2018-12-19T18:20:45.827Z,98142.53
2018-12-19T18:23:15.899Z,98148.13
2018-12-19T18:25:45.174Z,98135.18
2018-12-19T18:28:13.789Z,98145.70
2018-12-19T18:30:42.463Z,98137.17
2018-12-19T18:33:11.029Z,98140.73
2018-12-19T18:35:39.892Z,98145.67
2018-12-19T18:38:09.230Z,98140.55
2018-12-19T18:40:37.916Z,98132.48
2018-12-19T18:43:12.700Z,98123.53
2018-12-19T18:45:37.912Z,98131.55
2018-12-19T18:48:07.100Z,98135.42
2018-12-19T18:50:37.503Z,98140.87
2018-12-19T18:53:06.141Z,98155.89
2018-12-19T18:55:34.717Z,98135.16
2018-12-19T18:58:04.834Z,98133.42
2018-12-19T19:03:08.112Z,98135.00
2018-12-19T19:05:38.595Z,98130.15
2018-12-19T19:08:07.381Z,98129.70
2018-12-19T19:13:10.508Z,98140.91
2018-12-19T19:15:39.961Z,98146.11
2018-12-19T19:18:08.577Z,98143.58
2018-12-19T19:20:37.676Z,98143.16
2018-12-19T19:23:06.829Z,98142.31
2018-12-19T19:25:35.412Z,98143.61
2018-12-19T19:28:03.942Z,98131.92
2018-12-19T19:30:32.902Z,98123.30
2018-12-19T19:33:02.393Z,98123.33
2018-12-19T19:35:31.130Z,98118.59
2018-12-19T19:37:59.698Z,98113.11
2018-12-19T19:40:28.209Z,98115.64
2018-12-19T19:42:57.698Z,98114.30
2018-12-19T19:45:29.437Z,98109.08
2018-12-19T19:47:58.429Z,98111.92
2018-12-19T19:50:26.914Z,98110.16
2018-12-19T19:52:56.820Z,98113.13
2018-12-19T19:55:25.383Z,98107.98
2018-12-19T19:57:55.627Z,98034.13
2018-12-19T20:00:31.557Z,98108.86
2018-12-19T20:03:00.202Z,98103.70
2018-12-19T20:05:29.739Z,98099.84
2018-12-19T20:07:58.348Z,98095.13
2018-12-19T20:10:28.093Z,98094.70
2018-12-19T20:12:56.758Z,98089.11
2018-12-19T20:15:25.431Z,98091.66
2018-12-19T20:17:54.288Z,98092.53
2018-12-19T20:20:22.987Z,98085.68
2018-12-19T20:22:51.522Z,98079.62
2018-12-19T20:25:21.193Z,98083.09
2018-12-19T20:27:49.842Z,98073.98
2018-12-19T20:30:18.398Z,98069.67
2018-12-19T20:32:46.894Z,98045.48
2018-12-19T20:35:15.515Z,98043.50
2018-12-19T20:37:44.059Z,98057.24
2018-12-19T20:40:13.661Z,98067.10
2018-12-19T20:42:42.204Z,98059.58
2018-12-19T20:45:10.752Z,98058.48
2018-12-19T20:47:39.653Z,98056.69
2018-12-19T20:50:10.117Z,98059.59
2018-12-19T20:52:38.945Z,98058.71
2018-12-19T20:55:07.520Z,98060.77
2018-12-19T20:57:36.118Z,98058.15
2018-12-19T21:00:07.034Z,98060.23
2018-12-19T21:02:36.495Z,98059.77
2018-12-19T21:05:05.289Z,98064.84
2018-12-19T21:07:33.792Z,98069.98
2018-12-19T21:10:02.408Z,98069.98
2018-12-19T21:12:30.869Z,98069.58
2018-12-19T21:14:59.396Z,98067.92
2018-12-19T21:17:33.496Z,98050.67
2018-12-19T21:20:02.236Z,98049.80
2018-12-19T21:22:31.920Z,98048.52
2018-12-19T21:25:00.408Z,98049.34
2018-12-19T21:27:28.890Z,98044.96
2018-12-19T21:29:57.364Z,98042.36
2018-12-19T21:32:25.836Z,98042.32
2018-12-19T21:34:54.301Z,98059.95
2018-12-19T21:37:22.754Z,98059.95
2018-12-19T21:39:51.258Z,98059.39
2018-12-19T21:42:19.679Z,98071.90
2018-12-19T21:44:48.145Z,98064.13
2018-12-19T21:47:16.688Z,98051.22
2018-12-19T21:49:45.285Z,98043.43
2018-12-19T21:52:13.784Z,98056.25
2018-12-19T21:54:42.316Z,98050.25
2018-12-19T21:57:10.790Z,98056.19
2018-12-19T21:59:39.312Z,98050.47
2018-12-19T22:02:07.839Z,98051.72
2018-12-19T22:04:36.303Z,98042.30
2018-12-19T22:07:04.962Z,98031.11
2018-12-19T22:09:33.627Z,98032.96
2018-12-19T22:12:02.343Z,98026.80
2018-12-19T22:14:30.891Z,98021.02
2018-12-19T22:17:04.863Z,98027.00
2018-12-19T22:19:33.596Z,98034.20
2018-12-19T22:22:02.286Z,98050.02
2018-12-19T22:24:30.758Z,98039.66
2018-12-19T22:26:59.285Z,98032.76
2018-12-19T22:29:27.843Z,98038.36
2018-12-19T22:31:56.314Z,98029.34
2018-12-19T22:34:24.771Z,98027.16
2018-12-19T22:36:53.319Z,98037.91
2018-12-19T22:39:21.951Z,98036.52
2018-12-19T22:41:50.411Z,98025.22
2018-12-19T22:44:18.875Z,98028.30
2018-12-19T22:46:47.386Z,98029.95
2018-12-19T22:49:15.845Z,98018.36
2018-12-19T22:51:44.302Z,98026.53
2018-12-19T22:54:12.825Z,98021.80
2018-12-19T22:56:41.475Z,98020.91
2018-12-19T22:59:10.026Z,98017.50
2018-12-19T23:01:44.155Z,98022.73
2018-12-19T23:04:12.807Z,98023.73
2018-12-19T23:06:41.234Z,98021.64
2018-12-19T23:09:09.770Z,98019.02
2018-12-19T23:11:38.294Z,98010.75
2018-12-19T23:14:06.816Z,98000.03
2018-12-19T23:16:35.419Z,97997.45
2018-12-19T23:19:04.633Z,98003.78
2018-12-19T23:21:33.393Z,97993.88
2018-12-19T23:24:01.936Z,97999.14
2018-12-19T23:26:30.489Z,97989.70
2018-12-19T23:29:03.077Z,97987.16
2018-12-19T23:31:32.273Z,97976.03
2018-12-19T23:34:00.731Z,97981.66
2018-12-19T23:36:29.271Z,97978.02
2018-12-19T23:38:57.804Z,97975.00
2018-12-19T23:41:26.245Z,97971.11
2018-12-19T23:43:55.156Z,97970.61
2018-12-19T23:46:23.949Z,97975.31
2018-12-19T23:48:52.694Z,97983.06
2018-12-19T23:51:21.179Z,97981.83
2018-12-19T23:53:49.669Z,97980.99
2018-12-19T23:56:18.569Z,97966.66
2018-12-19T23:58:47.042Z,97961.36
